Time;durP1;ratioP1;P1;durP2;ratioP2;P2;SDS_P1;SDS_P2;PMS_P1;PMS_P2;Temp;Humidity;BMP_temperature;BMP_pressure;BME280_temperature;BME280_humidity;BME280_pressure;Samples;Min_cycle;Max_cycle;Signal;HPM_P1;HPM_P2
2022/05/16 00:00:57;;;;;;;3.53;1.87;;;19.80;53.30;;;;;;7375016;19;20392;-58
2022/05/16 00:03:27;;;;;;;5.40;1.97;;;20.00;52.70;;;;;;7366761;19;20794;-58
2022/05/16 00:05:57;;;;;;;2.10;1.67;;;20.00;52.80;;;;;;7375598;19;20409;-58
2022/05/16 00:08:29;;;;;;;4.10;1.83;;;20.00;52.70;;;;;;7378023;19;20379;-58
2022/05/16 00:10:59;;;;;;;2.20;1.77;;;19.90;52.80;;;;;;7371072;19;20474;-58
2022/05/16 00:13:31;;;;;;;2.53;1.80;;;19.80;53.00;;;;;;7378945;19;20372;-58
2022/05/16 00:16:00;;;;;;;2.70;1.50;;;19.70;53.80;;;;;;7369373;19;21057;-58
2022/05/16 00:18:30;;;;;;;1.70;1.60;;;19.60;54.40;;;;;;7369788;19;20507;-57
2022/05/16 00:20:59;;;;;;;3.40;1.50;;;19.50;54.40;;;;;;7372603;19;20376;-58
2022/05/16 00:23:31;;;;;;;3.57;1.70;;;19.50;54.20;;;;;;7368369;19;20412;-58
2022/05/16 00:26:05;;;;;;;3.30;1.90;;;19.50;54.20;;;;;;7372011;19;20372;-58
2022/05/16 00:28:40;;;;;;;1.90;1.80;;;19.50;53.60;;;;;;7366876;19;20765;-58
2022/05/16 00:31:09;;;;;;;3.20;1.87;;;19.50;53.90;;;;;;7370688;19;20386;-58
2022/05/16 00:33:41;;;;;;;9.60;1.90;;;19.50;54.10;;;;;;7373744;19;20752;-58
2022/05/16 00:36:11;;;;;;;3.03;2.00;;;19.50;54.00;;;;;;7370340;19;20392;-58
2022/05/16 00:38:43;;;;;;;2.77;2.20;;;19.40;54.20;;;;;;7370845;19;20467;-58
2022/05/16 00:41:15;;;;;;;3.53;1.70;;;19.40;55.10;;;;;;7372091;19;20487;-57
2022/05/16 00:43:51;;;;;;;3.20;2.00;;;19.40;54.60;;;;;;7371496;19;20387;-58
2022/05/16 00:46:21;;;;;;;3.60;1.90;;;19.40;54.40;;;;;;7371707;19;20798;-58
2022/05/16 00:48:50;;;;;;;4.40;2.00;;;19.40;54.20;;;;;;7359269;19;20448;-58
2022/05/16 00:51:23;;;;;;;2.77;1.80;;;19.20;55.30;;;;;;7368387;19;20476;-58
2022/05/16 00:53:58;;;;;;;2.90;1.70;;;19.20;54.60;;;;;;7371500;19;20881;-58
2022/05/16 00:56:28;;;;;;;1.90;1.70;;;19.00;55.50;;;;;;7369769;19;20457;-58
2022/05/16 00:59:01;;;;;;;4.10;2.10;;;18.90;56.00;;;;;;7371890;19;20994;-58
2022/05/16 01:06:56;;;;;;;3.10;2.10;;;18.90;55.90;;;;;;7370103;19;20404;-58
2022/05/16 01:09:26;;;;;;;3.33;2.03;;;18.90;55.20;;;;;;7365650;19;20372;-58
2022/05/16 01:11:57;;;;;;;2.57;1.63;;;19.10;55.00;;;;;;7369774;19;20452;-58
2022/05/16 01:14:52;;;;;;;1.77;1.67;;;19.00;55.10;;;;;;7372034;19;20410;-58
2022/05/16 01:17:27;;;;;;;1.60;1.50;;;19.00;55.80;;;;;;7367505;19;20384;-58
2022/05/16 01:19:56;;;;;;;2.33;1.73;;;18.70;56.80;;;;;;7368031;19;20375;-58
2022/05/16 01:22:35;;;;;;;2.67;1.80;;;18.60;57.30;;;;;;7368004;19;20403;-58
2022/05/16 01:25:09;;;;;;;3.27;1.90;;;18.70;56.10;;;;;;7369685;19;20871;-57
2022/05/16 01:27:51;;;;;;;4.17;2.97;;;18.60;56.20;;;;;;7366704;19;20393;-58
2022/05/16 01:30:23;;;;;;;3.37;2.30;;;18.70;56.40;;;;;;7365368;19;20395;-58
2022/05/16 01:32:53;;;;;;;2.93;1.70;;;18.90;56.30;;;;;;7368299;19;20371;-58
2022/05/16 01:35:29;;;;;;;5.03;1.90;;;18.70;56.90;;;;;;7366410;19;20396;-58
2022/05/16 01:40:51;;;;;;;2.97;1.70;;;18.50;57.30;;;;;;7372093;19;20492;-58
2022/05/16 01:43:24;;;;;;;2.93;1.60;;;18.50;56.90;;;;;;7368211;19;20890;-57
2022/05/16 01:45:54;;;;;;;3.23;1.87;;;18.40;57.50;;;;;;7367380;19;20946;-58
2022/05/16 01:48:30;;;;;;;4.57;1.93;;;18.50;57.50;;;;;;7363482;19;20424;-58
2022/05/16 01:51:01;;;;;;;2.17;1.80;;;18.50;56.50;;;;;;7369023;19;20404;-58
2022/05/16 01:53:33;;;;;;;2.10;1.63;;;18.60;56.70;;;;;;7371133;19;20907;-58
2022/05/16 01:56:03;;;;;;;2.30;1.67;;;18.40;58.00;;;;;;7369289;19;20782;-58
2022/05/16 01:58:32;;;;;;;1.90;1.53;;;18.20;59.00;;;;;;7367063;19;20895;-58
2022/05/16 02:01:07;;;;;;;2.13;1.60;;;18.30;58.40;;;;;;7367139;19;20367;-58
2022/05/16 02:03:38;;;;;;;3.47;1.53;;;18.50;58.10;;;;;;7366297;19;20372;-58
2022/05/16 02:06:08;;;;;;;5.77;2.10;;;18.70;57.40;;;;;;7369665;19;20958;-58
2022/05/16 02:08:47;;;;;;;2.57;1.73;;;18.90;56.80;;;;;;7369157;19;20996;-58
2022/05/16 02:11:17;;;;;;;2.93;1.60;;;18.90;56.10;;;;;;7367468;19;20398;-58
2022/05/16 02:13:49;;;;;;;2.50;1.80;;;18.90;55.10;;;;;;7370437;19;20379;-58
2022/05/16 02:16:22;;;;;;;2.67;1.70;;;18.90;54.50;;;;;;7365550;19;20380;-58
2022/05/16 02:18:51;;;;;;;2.90;2.60;;;19.10;54.60;;;;;;7367981;19;20819;-58
2022/05/16 02:26:54;;;;;;;3.17;2.10;;;19.40;53.40;;;;;;7368711;19;20409;-58
2022/05/16 02:29:23;;;;;;;3.00;2.07;;;19.40;53.40;;;;;;7372675;19;20372;-58
2022/05/16 02:31:53;;;;;;;2.63;2.10;;;19.50;53.10;;;;;;7370917;19;20412;-58
2022/05/16 02:34:27;;;;;;;2.13;1.73;;;19.60;53.20;;;;;;7371223;19;20444;-58
2022/05/16 02:36:58;;;;;;;4.77;2.00;;;19.50;53.10;;;;;;7370892;19;20465;-57
2022/05/16 02:39:33;;;;;;;5.33;2.20;;;19.50;53.10;;;;;;7367010;19;20412;-58
2022/05/16 02:42:06;;;;;;;4.00;2.20;;;19.50;53.40;;;;;;7367423;19;20942;-58
2022/05/16 02:44:36;;;;;;;1.90;1.80;;;19.30;53.70;;;;;;7370536;19;20404;-58
2022/05/16 02:47:06;;;;;;;2.30;1.73;;;19.20;54.50;;;;;;7365379;19;20376;-58
2022/05/16 02:49:35;;;;;;;2.97;2.23;;;19.00;54.50;;;;;;7360446;19;20443;-58
2022/05/16 02:52:07;;;;;;;5.00;2.47;;;19.10;54.40;;;;;;7367688;19;20399;-58
2022/05/16 02:54:40;;;;;;;4.63;2.13;;;19.20;55.30;;;;;;7365383;19;20940;-58
2022/05/16 02:57:10;;;;;;;3.13;2.00;;;19.30;54.10;;;;;;7367969;19;20384;-58
2022/05/16 02:59:42;;;;;;;2.50;1.90;;;19.20;53.70;;;;;;7365350;19;20745;-58
2022/05/16 03:02:14;;;;;;;3.13;2.03;;;19.30;53.70;;;;;;7370461;19;20467;-58
2022/05/16 03:04:45;;;;;;;6.27;2.53;;;19.40;53.60;;;;;;7368341;19;20373;-58
2022/05/16 03:07:15;;;;;;;3.40;2.63;;;19.50;53.60;;;;;;7368850;19;21077;-58
2022/05/16 03:09:47;;;;;;;4.87;2.17;;;19.50;53.70;;;;;;7368191;19;20423;-58
2022/05/16 03:12:17;;;;;;;3.03;2.40;;;19.60;53.30;;;;;;7370622;19;20372;-58
2022/05/16 03:14:51;;;;;;;3.90;2.43;;;19.60;53.80;;;;;;7370917;19;20380;-58
2022/05/16 03:17:23;;;;;;;3.03;2.37;;;19.60;53.10;;;;;;7367189;19;20430;-58
2022/05/16 03:19:52;;;;;;;4.90;2.47;;;19.60;53.20;;;;;;7369983;19;20400;-58
2022/05/16 03:22:22;;;;;;;2.60;2.00;;;19.60;53.00;;;;;;7364533;19;20936;-58
2022/05/16 03:24:54;;;;;;;2.93;2.10;;;19.60;53.20;;;;;;7369137;19;21001;-58
2022/05/16 03:27:26;;;;;;;3.50;2.30;;;19.70;53.40;;;;;;7362213;19;21126;-58
2022/05/16 03:29:57;;;;;;;4.10;2.40;;;19.70;54.20;;;;;;7374042;19;20373;-58
2022/05/16 03:32:27;;;;;;;4.03;2.27;;;19.60;55.00;;;;;;7366146;19;20487;-58
2022/05/16 03:34:59;;;;;;;1.83;1.73;;;19.70;55.20;;;;;;7369736;19;20387;-58
2022/05/16 03:37:31;;;;;;;3.23;2.30;;;19.60;55.20;;;;;;7376348;19;20380;-58
2022/05/16 03:42:45;;;;;;;5.40;2.50;;;19.50;56.20;;;;;;7368245;19;20388;-57
2022/05/16 03:45:18;;;;;;;4.00;2.13;;;19.60;56.00;;;;;;7373828;19;20485;-58
2022/05/16 03:47:51;;;;;;;2.90;2.60;;;19.70;55.60;;;;;;7373793;19;20471;-58
2022/05/16 03:50:23;;;;;;;2.43;2.23;;;19.60;55.90;;;;;;7367701;19;20436;-58
2022/05/16 03:52:58;;;;;;;4.17;2.30;;;19.50;56.30;;;;;;7372430;19;20364;-58
2022/05/16 03:55:31;;;;;;;3.57;2.10;;;19.60;56.00;;;;;;7376707;19;20931;-58
2022/05/16 03:58:03;;;;;;;3.43;2.20;;;19.60;55.60;;;;;;7370671;19;20374;-58
2022/05/16 04:00:32;;;;;;;3.53;1.97;;;19.40;56.40;;;;;;7370742;19;20383;-58
2022/05/16 04:03:02;;;;;;;2.77;2.03;;;19.30;57.10;;;;;;7372499;19;20517;-58
2022/05/16 04:05:33;;;;;;;3.20;2.67;;;19.20;57.80;;;;;;7377915;19;20376;-58
2022/05/16 04:08:09;;;;;;;4.93;2.37;;;19.10;58.20;;;;;;7371798;19;20765;-58
2022/05/16 04:10:44;;;;;;;3.00;2.27;;;19.20;57.80;;;;;;7370260;19;20396;-57
2022/05/16 04:13:13;;;;;;;3.37;2.13;;;19.20;58.20;;;;;;7370275;19;20388;-58
2022/05/16 04:15:47;;;;;;;3.87;2.60;;;19.20;58.70;;;;;;7368234;19;20379;-58
2022/05/16 04:18:19;;;;;;;3.33;2.50;;;19.30;58.30;;;;;;7369796;19;20946;-57
2022/05/16 04:20:49;;;;;;;2.90;2.10;;;19.50;58.40;;;;;;7362305;19;21009;-58
2022/05/16 04:23:19;;;;;;;5.80;2.50;;;19.50;58.20;;;;;;7372719;19;20387;-58
2022/05/16 04:25:53;;;;;;;2.93;2.67;;;19.60;58.20;;;;;;7366333;19;20380;-58
2022/05/16 04:28:22;;;;;;;2.50;2.07;;;19.70;58.10;;;;;;7368469;19;20409;-58
2022/05/16 04:30:52;;;;;;;3.60;2.50;;;19.90;58.80;;;;;;7364666;19;24681;-58
2022/05/16 04:33:26;;;;;;;4.00;2.67;;;19.80;58.00;;;;;;7373284;19;20470;-58
2022/05/16 04:35:55;;;;;;;5.47;2.93;;;19.90;59.80;;;;;;7373856;19;20372;-58
2022/05/16 04:38:25;;;;;;;2.70;2.43;;;19.90;60.00;;;;;;7364998;19;20437;-58
2022/05/16 04:43:41;;;;;;;2.87;2.57;;;19.90;62.10;;;;;;7370947;19;20408;-58
2022/05/16 04:46:11;;;;;;;3.70;2.77;;;19.80;63.50;;;;;;7372223;19;20376;-58
2022/05/16 04:48:40;;;;;;;3.60;2.97;;;19.60;66.10;;;;;;7362775;19;20467;-58
2022/05/16 04:51:10;;;;;;;4.03;2.57;;;19.50;68.40;;;;;;7365214;19;20806;-59
2022/05/16 04:53:46;;;;;;;3.63;2.63;;;19.30;70.60;;;;;;7373367;19;20653;-57
2022/05/16 04:56:20;;;;;;;4.37;2.40;;;19.30;71.30;;;;;;7364266;19;20748;-58
2022/05/16 04:58:50;;;;;;;4.93;2.50;;;19.10;76.30;;;;;;7370026;19;20378;-58
2022/05/16 05:01:19;;;;;;;3.97;2.93;;;19.20;77.20;;;;;;7366113;19;20830;-58
2022/05/16 05:03:51;;;;;;;3.70;3.13;;;19.10;75.70;;;;;;7367100;19;20733;-58
2022/05/16 05:06:22;;;;;;;3.43;2.90;;;19.20;78.10;;;;;;7365396;19;20388;-58
2022/05/16 05:08:56;;;;;;;5.20;3.20;;;19.30;78.80;;;;;;7359674;19;20412;-58
2022/05/16 05:16:57;;;;;;;4.80;3.40;;;19.70;78.90;;;;;;7362755;19;20428;-58
2022/05/16 05:19:27;;;;;;;4.13;3.70;;;19.80;78.40;;;;;;7363620;19;20890;-58
2022/05/16 05:21:59;;;;;;;3.30;2.87;;;19.80;78.70;;;;;;7366113;19;20387;-58
2022/05/16 05:24:33;;;;;;;7.57;3.10;;;19.80;79.20;;;;;;7364300;19;20380;-58
2022/05/16 05:27:06;;;;;;;3.33;2.90;;;19.80;78.50;;;;;;7367100;19;20408;-58
2022/05/16 05:29:38;;;;;;;3.57;2.67;;;19.70;77.20;;;;;;7367015;19;20364;-58
2022/05/16 05:32:10;;;;;;;4.00;3.40;;;19.80;77.10;;;;;;7367301;19;20380;-58
2022/05/16 05:34:42;;;;;;;5.67;3.03;;;19.90;78.50;;;;;;7372001;19;20415;-58
2022/05/16 05:37:14;;;;;;;7.53;3.67;;;20.10;77.50;;;;;;7368404;19;20384;-58
2022/05/16 05:39:43;;;;;;;5.70;3.30;;;20.20;76.90;;;;;;7368467;19;20506;-58
2022/05/16 05:42:17;;;;;;;5.07;3.00;;;20.20;75.00;;;;;;7364749;19;20464;-58
2022/05/16 05:44:47;;;;;;;7.47;3.60;;;20.10;74.30;;;;;;7368960;19;20484;-58
2022/05/16 05:47:20;;;;;;;6.30;3.40;;;20.20;74.90;;;;;;7369684;19;20384;-61
2022/05/16 05:49:51;;;;;;;3.90;3.27;;;20.20;76.60;;;;;;7355428;19;20466;-59
2022/05/16 05:52:21;;;;;;;5.60;3.20;;;20.20;76.80;;;;;;7363570;19;20372;-59
2022/05/16 05:54:51;;;;;;;4.03;3.10;;;20.20;75.80;;;;;;7371838;19;20376;-58
2022/05/16 05:57:29;;;;;;;5.23;2.63;;;20.30;75.20;;;;;;7368954;19;20408;-59
2022/05/16 06:00:05;;;;;;;8.20;4.50;;;20.40;74.50;;;;;;7366984;19;20455;-59
2022/05/16 06:02:40;;;;;;;4.83;3.43;;;20.40;74.70;;;;;;7372075;19;20380;-59
2022/05/16 06:05:11;;;;;;;4.57;3.37;;;20.60;73.40;;;;;;7370818;19;20443;-58
2022/05/16 06:07:40;;;;;;;5.90;3.70;;;20.80;70.40;;;;;;7366514;19;20968;-59
2022/05/16 06:10:11;;;;;;;5.27;2.77;;;20.90;68.50;;;;;;7367497;19;20934;-59
2022/05/16 06:12:46;;;;;;;5.13;3.47;;;21.00;66.90;;;;;;7367091;19;21282;-59
2022/05/16 06:15:19;;;;;;;2.87;2.67;;;21.10;66.30;;;;;;7370883;19;20390;-59
2022/05/16 06:17:49;;;;;;;3.20;2.90;;;21.10;66.80;;;;;;7372177;19;20406;-58
2022/05/16 06:20:18;;;;;;;6.33;3.60;;;21.00;65.50;;;;;;7370464;19;20376;-59
2022/05/16 06:22:48;;;;;;;3.43;3.13;;;21.00;66.20;;;;;;7370917;19;20388;-59
2022/05/16 06:25:34;;;;;;;4.67;3.10;;;20.90;67.50;;;;;;7371303;19;20380;-58
2022/05/16 06:28:14;;;;;;;4.03;3.10;;;20.90;67.70;;;;;;7371844;19;20382;-59
2022/05/16 06:30:50;;;;;;;10.43;3.23;;;21.00;64.80;;;;;;7370511;19;20408;-51
2022/05/16 06:33:28;;;;;;;3.40;2.83;;;21.00;65.80;;;;;;7371453;19;20439;-51
2022/05/16 06:36:01;;;;;;;3.10;2.80;;;21.20;66.10;;;;;;7366122;19;20384;-51
2022/05/16 06:38:38;;;;;;;5.63;2.90;;;21.40;65.50;;;;;;7372235;19;20420;-51
2022/05/16 06:41:07;;;;;;;4.30;3.40;;;21.50;65.30;;;;;;7365311;19;21131;-51
2022/05/16 06:43:42;;;;;;;5.80;3.47;;;21.50;65.80;;;;;;7361351;19;20372;-51
2022/05/16 06:46:11;;;;;;;4.97;3.27;;;21.60;66.20;;;;;;7362362;19;20399;-51
2022/05/16 06:48:41;;;;;;;5.47;3.90;;;21.70;65.70;;;;;;7364620;19;21046;-51
2022/05/16 06:51:16;;;;;;;5.10;2.87;;;21.80;67.00;;;;;;7367161;19;20399;-51
2022/05/16 06:53:48;;;;;;;6.40;3.47;;;22.00;65.00;;;;;;7369551;19;20388;-51
2022/05/16 06:56:17;;;;;;;8.23;3.53;;;22.20;62.70;;;;;;7361253;19;20380;-52
2022/05/16 06:58:49;;;;;;;4.40;3.03;;;22.50;60.40;;;;;;7357650;19;20388;-51
2022/05/16 07:01:19;;;;;;;5.50;3.80;;;22.80;59.30;;;;;;7363718;19;20379;-59
2022/05/16 07:03:53;;;;;;;3.10;2.80;;;23.00;58.90;;;;;;7369477;19;20457;-59
2022/05/16 07:06:27;;;;;;;4.17;2.67;;;23.10;58.10;;;;;;7377542;19;20387;-59
2022/05/16 07:08:59;;;;;;;3.10;2.60;;;22.90;57.60;;;;;;7375658;19;20406;-59
2022/05/16 07:11:32;;;;;;;5.60;2.57;;;22.70;58.30;;;;;;7376363;19;20412;-59
2022/05/16 07:14:04;;;;;;;4.03;3.03;;;22.80;58.20;;;;;;7372115;19;20901;-59
2022/05/16 07:16:34;;;;;;;5.67;3.00;;;22.70;58.20;;;;;;7373566;19;20412;-59
2022/05/16 07:19:04;;;;;;;3.67;2.97;;;22.70;58.40;;;;;;7364971;19;20392;-58
2022/05/16 07:21:38;;;;;;;6.93;4.10;;;22.60;58.20;;;;;;7379889;19;20455;-59
2022/05/16 07:24:08;;;;;;;5.87;3.30;;;22.80;58.60;;;;;;7371220;19;20762;-58
2022/05/16 07:29:27;;;;;;;3.97;3.00;;;23.60;57.40;;;;;;7374741;19;20385;-59
2022/05/16 07:31:57;;;;;;;3.47;3.17;;;24.00;56.90;;;;;;7365888;19;20908;-59
2022/05/16 07:34:26;;;;;;;3.17;2.33;;;24.30;56.70;;;;;;7377966;19;21135;-59
2022/05/16 07:36:56;;;;;;;3.53;3.23;;;24.30;56.20;;;;;;7367924;19;20384;-58
2022/05/16 07:39:30;;;;;;;3.90;3.33;;;24.30;56.50;;;;;;7375387;19;20424;-58
2022/05/16 07:42:02;;;;;;;3.93;3.20;;;24.10;56.70;;;;;;7374772;19;20845;-58
2022/05/16 07:44:40;;;;;;;4.47;3.00;;;24.10;56.80;;;;;;7368886;19;20682;-59
2022/05/16 07:47:12;;;;;;;5.10;3.63;;;24.30;56.40;;;;;;7366194;19;20402;-58
2022/05/16 07:49:42;;;;;;;6.10;4.13;;;24.30;56.90;;;;;;7363046;19;20383;-58
2022/05/16 07:52:11;;;;;;;5.20;3.80;;;24.60;56.50;;;;;;7377557;19;20416;-59
2022/05/16 07:54:43;;;;;;;4.60;3.63;;;24.30;57.30;;;;;;7377260;19;20460;-59
2022/05/16 07:57:13;;;;;;;7.27;3.73;;;24.30;56.90;;;;;;7374501;19;20373;-59
2022/05/16 07:59:47;;;;;;;6.13;3.80;;;24.20;57.90;;;;;;7372619;19;20388;-59
2022/05/16 08:02:19;;;;;;;4.23;3.83;;;24.20;58.00;;;;;;7377827;19;21358;-58
2022/05/16 08:04:53;;;;;;;14.53;4.93;;;24.20;57.70;;;;;;7376440;19;20410;-62
2022/05/16 08:07:23;;;;;;;8.30;4.10;;;24.10;87.60;;;;;;7376606;19;20474;-58
2022/05/16 08:12:46;;;;;;;5.50;3.97;;;23.60;76.00;;;;;;7370413;19;20428;-59
2022/05/16 08:15:20;;;;;;;4.30;3.90;;;23.50;75.10;;;;;;7375291;19;20372;-38
2022/05/16 08:17:50;;;;;;;6.80;4.63;;;23.30;71.30;;;;;;7365994;19;20869;-68
2022/05/16 08:20:20;;;;;;;6.57;4.90;;;23.00;76.60;;;;;;7372636;19;20954;-68
2022/05/16 08:22:49;;;;;;;6.67;4.40;;;22.90;80.60;;;;;;7372347;19;20386;-69
2022/05/16 08:25:19;;;;;;;4.97;4.03;;;23.00;78.30;;;;;;7378874;19;20416;-69
2022/05/16 08:27:50;;;;;;;8.10;4.60;;;22.80;75.30;;;;;;7364621;19;20524;-68
2022/05/16 08:30:23;;;;;;;6.17;5.53;;;22.60;79.60;;;;;;7378313;19;20416;-67
2022/05/16 08:32:53;;;;;;;6.30;4.87;;;22.50;84.60;;;;;;7374074;19;20490;-69
2022/05/16 08:35:23;;;;;;;5.97;4.60;;;22.40;84.20;;;;;;7372270;19;20408;-68
2022/05/16 08:40:43;;;;;;;5.93;4.57;;;22.10;80.90;;;;;;7367428;19;20395;-70
2022/05/16 08:43:21;;;;;;;5.57;4.40;;;22.40;80.30;;;;;;7372660;19;21295;-68
2022/05/16 08:46:08;;;;;;;7.00;4.83;;;22.50;78.90;;;;;;7374054;19;20781;-69
2022/05/16 08:48:42;;;;;;;6.10;4.40;;;22.70;78.40;;;;;;7366900;19;20428;-70
2022/05/16 08:51:17;;;;;;;6.60;4.70;;;22.70;76.80;;;;;;7364744;19;20539;-68
2022/05/16 08:53:50;;;;;;;4.97;4.37;;;23.00;76.00;;;;;;7372674;19;20468;-69
2022/05/16 08:56:23;;;;;;;6.43;4.50;;;23.80;74.70;;;;;;7368276;19;20391;-68
2022/05/16 08:59:00;;;;;;;4.50;4.07;;;24.70;68.70;;;;;;7377867;19;20380;-69
2022/05/16 09:01:38;;;;;;;5.40;4.83;;;25.50;63.30;;;;;;7370169;19;20570;-69
2022/05/16 09:04:15;;;;;;;5.87;4.03;;;26.40;58.00;;;;;;7369800;19;20929;-69
2022/05/16 09:06:52;;;;;;;6.23;4.07;;;27.10;65.50;;;;;;7364131;19;20388;-69
2022/05/16 09:09:25;;;;;;;7.60;4.17;;;27.60;66.80;;;;;;7372674;19;20400;-71
2022/05/16 09:12:02;;;;;;;4.50;4.10;;;28.00;59.10;;;;;;7369744;19;20368;-59
2022/05/16 09:14:44;;;;;;;5.50;4.93;;;28.00;57.50;;;;;;7370907;19;20428;-59
2022/05/16 09:17:27;;;;;;;4.53;3.53;;;27.40;56.80;;;;;;7364194;19;20383;-59
2022/05/16 09:20:10;;;;;;;6.53;4.10;;;27.30;58.30;;;;;;7370490;19;20368;-59
2022/05/16 09:22:45;;;;;;;6.73;4.50;;;27.60;59.10;;;;;;7361007;19;20368;-59
2022/05/16 09:25:23;;;;;;;5.20;4.27;;;28.20;56.20;;;;;;7367684;19;20380;-60
2022/05/16 09:30:42;;;;;;;5.60;4.20;;;29.70;45.80;;;;;;7360920;19;20364;-55
2022/05/16 09:33:18;;;;;;;8.80;4.80;;;30.30;43.40;;;;;;7358393;19;20127;-55
2022/05/16 09:35:58;;;;;;;7.23;4.70;;;29.90;43.40;;;;;;7367594;19;20395;-54
2022/05/16 09:38:30;;;;;;;7.67;4.30;;;29.80;43.60;;;;;;7364727;19;20870;-55
2022/05/16 09:41:13;;;;;;;6.60;4.13;;;29.60;43.80;;;;;;7342909;19;20376;-55
2022/05/16 09:43:46;;;;;;;5.30;3.70;;;29.50;43.80;;;;;;7369998;19;20376;-55
2022/05/16 09:46:28;;;;;;;6.73;4.27;;;29.50;43.20;;;;;;7367001;19;20368;-56
2022/05/16 09:49:13;;;;;;;8.33;4.40;;;29.20;42.30;;;;;;7351767;19;20436;-55
2022/05/16 09:51:51;;;;;;;5.80;4.00;;;28.70;43.30;;;;;;7365388;19;20450;-55
2022/05/16 09:54:30;;;;;;;8.67;4.33;;;28.30;44.40;;;;;;7363120;19;20384;-55
2022/05/16 09:57:19;;;;;;;5.60;4.83;;;28.00;44.80;;;;;;7367685;19;20907;-55
2022/05/16 09:59:53;;;;;;;5.50;3.97;;;28.00;45.00;;;;;;7369870;19;20393;-55
2022/05/16 10:02:29;;;;;;;10.03;4.50;;;27.90;44.80;;;;;;7372244;19;20371;-55
2022/05/16 10:05:03;;;;;;;7.63;4.23;;;28.00;45.20;;;;;;7368744;19;20379;-55
2022/05/16 10:07:44;;;;;;;5.00;3.80;;;28.60;44.30;;;;;;7366674;19;20469;-56
2022/05/16 10:10:19;;;;;;;6.20;3.90;;;29.60;41.80;;;;;;7366639;19;20376;-55
2022/05/16 10:12:54;;;;;;;5.47;3.80;;;30.80;40.60;;;;;;7367831;19;20392;-55
2022/05/16 10:15:24;;;;;;;9.67;3.90;;;32.20;36.80;;;;;;7368268;19;20435;-55
2022/05/16 10:17:58;;;;;;;5.50;3.43;;;32.50;36.10;;;;;;7366591;19;20754;-55
2022/05/16 10:20:34;;;;;;;6.50;3.67;;;32.20;35.80;;;;;;7367152;19;21525;-55
2022/05/16 10:23:08;;;;;;;6.07;3.40;;;31.50;37.10;;;;;;7370295;19;20372;-55
2022/05/16 10:25:43;;;;;;;6.50;3.90;;;31.20;37.90;;;;;;7368769;19;20391;-55
2022/05/16 10:28:21;;;;;;;4.63;3.97;;;31.50;37.90;;;;;;7372809;19;20387;-57
2022/05/16 10:33:38;;;;;;;5.93;4.50;;;32.50;35.60;;;;;;7359684;19;20376;-55
2022/05/16 10:36:17;;;;;;;10.40;4.40;;;31.70;36.70;;;;;;7349250;19;21086;-53
2022/05/16 10:38:56;;;;;;;12.07;4.97;;;30.60;38.50;;;;;;7373153;19;20364;-59
2022/05/16 10:41:30;;;;;;;9.13;3.90;;;29.40;40.70;;;;;;7365313;19;20368;-52
2022/05/16 10:44:09;;;;;;;5.20;3.87;;;28.50;42.30;;;;;;7364925;19;20973;-52
2022/05/16 10:46:42;;;;;;;9.87;4.43;;;27.60;44.30;;;;;;7371920;19;20950;-52
2022/05/16 10:49:16;;;;;;;8.10;4.73;;;27.40;44.80;;;;;;7358164;19;20468;-50
2022/05/16 10:51:55;;;;;;;6.47;3.80;;;27.20;45.40;;;;;;7369134;19;20708;-50
2022/05/16 10:54:30;;;;;;;4.77;4.10;;;27.10;46.00;;;;;;7363816;19;21116;-50
2022/05/16 10:57:15;;;;;;;6.63;3.20;;;27.00;46.10;;;;;;7370416;19;20835;-50
2022/05/16 11:00:09;;;;;;;8.60;2.93;;;26.70;46.10;;;;;;7371553;19;20376;-52
2022/05/16 11:03:00;;;;;;;9.73;4.20;;;26.50;46.70;;;;;;7370010;19;20379;-52
2022/05/16 11:05:42;;;;;;;5.57;3.30;;;26.40;46.60;;;;;;7364250;19;20734;-51
2022/05/16 11:08:27;;;;;;;7.30;3.53;;;26.10;47.20;;;;;;7373058;19;20360;-52
2022/05/16 11:11:04;;;;;;;5.07;3.13;;;26.10;48.00;;;;;;7366848;19;21359;-56
2022/05/16 11:13:48;;;;;;;8.53;3.00;;;26.10;48.20;;;;;;7371537;19;20372;-56
2022/05/16 11:16:21;;;;;;;5.90;3.27;;;25.90;48.20;;;;;;7370810;19;20383;-57
2022/05/16 11:18:54;;;;;;;6.43;3.17;;;25.90;48.40;;;;;;7373829;19;20427;-56
2022/05/16 11:21:36;;;;;;;4.70;3.13;;;25.70;49.30;;;;;;7371626;19;20385;-56
2022/05/16 11:24:17;;;;;;;6.00;3.07;;;25.70;49.60;;;;;;7369664;19;20412;-57
2022/05/16 11:26:55;;;;;;;4.80;2.43;;;25.50;50.40;;;;;;7374090;19;20392;-56
2022/05/16 11:29:36;;;;;;;6.50;2.93;;;25.40;50.50;;;;;;7364422;19;20438;-56
2022/05/16 11:32:25;;;;;;;5.03;2.90;;;25.20;51.00;;;;;;7366887;19;20412;-57
2022/05/16 11:35:02;;;;;;;5.07;2.80;;;25.00;51.50;;;;;;7364520;19;21321;-56
2022/05/16 11:37:46;;;;;;;7.40;2.67;;;24.90;51.70;;;;;;7374621;19;20383;-56
2022/05/16 11:40:25;;;;;;;5.87;2.67;;;25.00;51.50;;;;;;7370506;19;20416;-56
2022/05/16 11:43:04;;;;;;;3.03;1.93;;;25.00;51.20;;;;;;7366697;19;21114;-56
2022/05/16 11:45:54;;;;;;;4.20;2.60;;;24.80;51.20;;;;;;7371212;19;20668;-55
2022/05/16 11:48:28;;;;;;;7.03;2.80;;;24.70;51.20;;;;;;7352643;19;20440;-57
2022/05/16 11:51:10;;;;;;;3.17;1.63;;;24.70;51.10;;;;;;7357126;19;20387;-55
2022/05/16 11:53:50;;;;;;;3.10;2.10;;;24.50;50.70;;;;;;7374537;19;20894;-56
2022/05/16 12:02:15;;;;;;;5.13;2.17;;;24.10;50.80;;;;;;7372474;19;20464;-56
2022/05/16 12:04:47;;;;;;;5.47;1.80;;;24.10;49.50;;;;;;7371630;19;20380;-56
2022/05/16 12:07:32;;;;;;;3.23;1.87;;;24.10;49.80;;;;;;7367117;19;21156;-54
2022/05/16 12:10:05;;;;;;;4.97;1.50;;;23.90;49.50;;;;;;7354156;19;20406;-56
2022/05/16 12:12:42;;;;;;;1.83;1.53;;;23.80;50.70;;;;;;7373614;19;20799;-56
2022/05/16 12:15:30;;;;;;;2.13;1.50;;;23.80;51.70;;;;;;7367869;19;20374;-56
2022/05/16 12:18:03;;;;;;;3.57;1.97;;;23.50;53.70;;;;;;7373805;19;20376;-54
2022/05/16 12:21:04;;;;;;;3.40;1.80;;;23.40;55.20;;;;;;7371436;19;20372;-53
2022/05/16 12:24:02;;;;;;;3.93;1.83;;;23.30;60.60;;;;;;7370717;19;20420;-53
2022/05/16 12:27:03;;;;;;;3.23;2.00;;;22.80;68.80;;;;;;7372678;19;20377;-53
2022/05/16 12:29:52;;;;;;;5.37;1.90;;;22.10;82.80;;;;;;7374728;19;20423;-53
2022/05/16 12:32:51;;;;;;;3.37;1.73;;;21.00;88.00;;;;;;7369681;19;20380;-53
2022/05/16 12:35:53;;;;;;;4.90;2.27;;;20.50;92.50;;;;;;7376898;19;20380;-53
2022/05/16 12:38:25;;;;;;;2.27;1.60;;;20.80;93.50;;;;;;7368343;19;20776;-54
2022/05/16 12:44:27;;;;;;;2.80;1.83;;;20.70;94.70;;;;;;7362019;19;20408;-53
2022/05/16 12:47:41;;;;;;;6.27;2.27;;;20.40;94.50;;;;;;7366925;19;20377;-53
2022/05/16 12:50:42;;;;;;;5.33;2.30;;;20.20;95.10;;;;;;7353705;19;21066;-48
2022/05/16 12:53:46;;;;;;;6.40;2.00;;;20.40;94.40;;;;;;7368775;19;22506;-48
2022/05/16 12:56:25;;;;;;;3.87;2.83;;;20.50;98.40;;;;;;7373278;19;20420;-47
2022/05/16 12:59:05;;;;;;;12.20;2.20;;;20.30;95.10;;;;;;7371116;19;20395;-47
2022/05/16 13:01:40;;;;;;;2.87;2.07;;;20.20;97.40;;;;;;7364741;19;21542;-51
2022/05/16 13:04:25;;;;;;;3.37;2.00;;;20.30;97.30;;;;;;7373395;19;20384;-51
2022/05/16 13:07:04;;;;;;;2.80;1.70;;;20.70;95.20;;;;;;7357229;19;20383;-49
2022/05/16 13:09:53;;;;;;;3.77;2.40;;;21.30;94.10;;;;;;7374060;19;20412;-49
2022/05/16 13:12:41;;;;;;;4.43;1.73;;;21.40;93.40;;;;;;7367903;19;20368;-49
2022/05/16 13:15:17;;;;;;;8.03;2.70;;;22.30;90.70;;;;;;7367314;19;20477;-52
2022/05/16 13:17:57;;;;;;;2.87;1.90;;;22.90;85.70;;;;;;7336513;19;20452;-52
2022/05/16 13:20:34;;;;;;;3.37;1.90;;;23.50;87.50;;;;;;7345930;19;20412;-51
2022/05/16 13:23:18;;;;;;;5.53;1.90;;;24.60;76.10;;;;;;7405719;19;20476;-53
2022/05/16 13:31:33;;;;;;;4.17;2.23;;;26.00;62.60;;;;;;7408594;19;20422;-58
2022/05/16 13:34:04;;;;;;;1.97;1.53;;;26.10;60.50;;;;;;7405696;19;20387;-58
2022/05/16 13:36:36;;;;;;;8.33;2.30;;;26.00;59.40;;;;;;7402854;19;20476;-59
2022/05/16 13:39:11;;;;;;;5.93;2.23;;;26.10;61.70;;;;;;7399956;19;20415;-58
2022/05/16 13:41:45;;;;;;;5.37;2.13;;;26.10;59.80;;;;;;7410142;19;20383;-57
2022/05/16 13:44:17;;;;;;;2.50;1.63;;;25.90;61.30;;;;;;7407007;19;20420;-58
2022/05/16 13:46:49;;;;;;;4.37;1.87;;;25.50;64.20;;;;;;7406417;19;20901;-57
2022/05/16 13:49:21;;;;;;;3.47;1.90;;;24.90;65.80;;;;;;7386325;19;20444;-57
2022/05/16 13:51:53;;;;;;;4.70;1.60;;;25.20;65.50;;;;;;7386613;19;20406;-58
2022/05/16 13:54:30;;;;;;;7.20;2.10;;;25.30;63.40;;;;;;7386948;19;20384;-57
2022/05/16 13:57:03;;;;;;;3.60;1.70;;;25.10;65.00;;;;;;7391603;19;20442;-57
2022/05/16 13:59:38;;;;;;;3.03;1.90;;;25.30;66.00;;;;;;7398092;19;20378;-58
2022/05/16 14:02:12;;;;;;;2.70;2.10;;;25.30;66.20;;;;;;7397900;19;20380;-58
2022/05/16 14:04:48;;;;;;;4.27;2.17;;;25.40;63.60;;;;;;7396579;19;20370;-57
2022/05/16 14:07:22;;;;;;;7.50;2.40;;;25.20;62.90;;;;;;7394371;19;20371;-57
2022/05/16 14:09:57;;;;;;;5.33;2.53;;;25.20;63.90;;;;;;7398222;19;20364;-58
2022/05/16 14:12:31;;;;;;;6.40;2.60;;;25.10;65.00;;;;;;7399197;19;20391;-58
2022/05/16 14:15:02;;;;;;;5.80;2.83;;;24.70;67.00;;;;;;7401208;19;20375;-57
2022/05/16 14:17:38;;;;;;;4.33;2.63;;;24.70;69.40;;;;;;7396858;19;20443;-55